KALW/ALW METAR and TAF weather

Enter ICAO airport designator
Station Type Date Time Source
KALW METAR 2019/08/22 01:53 UTC NOAA

KALW 220153Z AUTO 19012KT 8SM -RA OVC100 22/13 A2993 RMK AO2 PK WND 23035/0118 RAB53 SLP128 P0000 T02220133


Station Type Date Time Source
KALW Decoded METAR 2019/08/22 01:53 UTC NOAA

Station name not available
Aug 21, 2019 - 09:53 PM EDT / 2019.08.22 0153 UTC
Wind: from the S (190 degrees) at 14 MPH (12 KT):0
Visibility: 8 mile(s):0
Sky conditions: overcast
Weather: light rain
Precipitation last hour: A trace
Temperature: 72.0 F (22.2 C)
Dew Point: 55.9 F (13.3 C)
Relative Humidity: 57%
Pressure (altimeter): 29.93 in. Hg (1013 hPa)
ob: KALW 220153Z AUTO 19012KT 8SM -RA OVC100 22/13 A2993 RMK AO2 PK WND 23035/0118 RAB53 SLP128 P0000 T02220133
cycle: 2

Station Type Date Time Source
KALW TAF 2019/08/21 22:09 UTC NOAA

TAF
AMD KALW 212206Z 2122/2218 22011KT P6SM FEW200
FM212300 25015G23KT P6SM BKN100
FM220100 22017G25KT P6SM -SHRA BKN060 OVC100
FM220600 19011KT P6SM SCT080
FM221500 21011KT P6SM SKC

Example: see airport list